Time;durP1;ratioP1;P1;durP2;ratioP2;P2;SDS_P1;SDS_P2;PMS_P1;PMS_P2;Temp;Humidity;BMP_temperature;BMP_pressure;BME280_temperature;BME280_humidity;BME280_pressure;Samples;Min_cycle;Max_cycle;Signal;HPM_P1;HPM_P2
2021/09/28 00:00:17;;;;;;;;;;;;;;;11.59;84.46;100831.39;1647260;86;20164;-77
2021/09/28 00:02:43;;;;;;;;;;;;;;;11.64;84.29;100833.09;1645211;85;20248;-78
2021/09/28 00:05:09;;;;;;;;;;;;;;;11.62;84.52;100836.86;1645233;85;21086;-77
2021/09/28 00:07:35;;;;;;;;;;;;;;;11.60;84.34;100833.53;1632619;86;20238;-76
2021/09/28 00:10:03;;;;;;;;;;;;;;;11.59;84.30;100835.83;1643442;86;20151;-77
2021/09/28 00:12:28;;;;;;;;;;;;;;;11.56;84.42;100841.41;1633350;86;20098;-79
2021/09/28 00:14:55;;;;;;;;;;;;;;;11.44;85.07;100838.95;1644197;86;20257;-77
2021/09/28 00:17:21;;;;;;;;;;;;;;;11.41;85.00;100849.00;1645431;86;21850;-78
2021/09/28 00:19:46;;;;;;;;;;;;;;;11.35;85.31;100846.43;1645898;86;20149;-78
2021/09/28 00:22:12;;;;;;;;;;;;;;;11.32;85.22;100854.65;1635567;85;20162;-77
2021/09/28 00:24:37;;;;;;;;;;;;;;;11.32;85.38;100849.36;1646490;86;20127;-78
2021/09/28 00:27:04;;;;;;;;;;;;;;;11.25;85.57;100850.44;1578368;87;20113;-78
2021/09/28 00:29:30;;;;;;;;;;;;;;;11.28;85.52;100855.93;1619192;87;21294;-77
2021/09/28 00:31:56;;;;;;;;;;;;;;;11.23;85.72;100847.58;1616594;87;20125;-79
2021/09/28 00:34:23;;;;;;;;;;;;;;;11.08;86.25;100852.00;1620576;87;20224;-78
2021/09/28 00:36:48;;;;;;;;;;;;;;;11.05;86.48;100856.25;1628112;87;20155;-82
2021/09/28 00:39:14;;;;;;;;;;;;;;;10.99;86.98;100850.20;1634431;86;20159;-78
2021/09/28 00:41:42;;;;;;;;;;;;;;;10.92;87.15;100847.77;1633921;86;21061;-81
2021/09/28 00:44:07;;;;;;;;;;;;;;;10.88;87.35;100849.05;1592425;87;20240;-80
2021/09/28 00:46:33;;;;;;;;;;;;;;;10.89;87.66;100848.05;1638198;85;20164;-79
2021/09/28 00:48:58;;;;;;;;;;;;;;;10.76;88.26;100855.78;1634903;86;20128;-77
2021/09/28 00:51:24;;;;;;;;;;;;;;;10.69;88.77;100850.73;1637179;86;20500;-77
2021/09/28 00:53:51;;;;;;;;;;;;;;;10.65;88.81;100853.78;1641239;86;21928;-77
2021/09/28 00:56:19;;;;;;;;;;;;;;;10.67;88.61;100850.01;1638782;86;20608;-78
2021/09/28 00:58:44;;;;;;;;;;;;;;;10.74;88.30;100845.02;1631599;86;20960;-77
2021/09/28 01:01:12;;;;;;;;;;;;;;;10.74;88.25;100841.89;1641826;85;20122;-77
2021/09/28 01:03:38;;;;;;;;;;;;;;;10.71;88.16;100847.45;1640577;86;21028;-81
2021/09/28 01:06:06;;;;;;;;;;;;;;;10.75;87.80;100838.28;1633163;86;21156;-77
2021/09/28 01:08:31;;;;;;;;;;;;;;;10.80;87.65;100840.97;1615277;87;20176;-77
2021/09/28 01:10:57;;;;;;;;;;;;;;;10.71;88.07;100843.48;1628228;86;20625;-78
2021/09/28 01:13:23;;;;;;;;;;;;;;;10.73;87.88;100838.89;1625206;87;20144;-77
2021/09/28 01:16:04;;;;;;;;;;;;;;;10.59;88.68;100834.86;1645975;86;20210;-77
2021/09/28 01:18:31;;;;;;;;;;;;;;;10.61;88.58;100837.36;1647597;86;21202;-78
2021/09/28 01:20:58;;;;;;;;;;;;;;;10.62;88.48;100841.68;1645721;86;20330;-80
2021/09/28 01:23:23;;;;;;;;;;;;;;;10.52;88.97;100836.41;1646033;85;20635;-80
2021/09/28 01:25:49;;;;;;;;;;;;;;;10.52;89.39;100839.05;1647800;85;20249;-79
2021/09/28 01:28:14;;;;;;;;;;;;;;;10.43;89.57;100837.73;1648061;85;20452;-79
2021/09/28 01:30:40;;;;;;;;;;;;;;;10.45;89.66;100839.74;1647901;85;22444;-78
2021/09/28 01:33:08;;;;;;;;;;;;;;;10.46;89.25;100840.09;1643600;86;20160;-79
2021/09/28 01:35:35;;;;;;;;;;;;;;;10.39;89.84;100841.12;1646555;86;20159;-79
2021/09/28 01:38:00;;;;;;;;;;;;;;;10.26;90.12;100839.21;1649138;86;20389;-78
2021/09/28 01:40:26;;;;;;;;;;;;;;;10.28;90.14;100839.41;1644919;85;20156;-78
2021/09/28 01:42:52;;;;;;;;;;;;;;;10.24;90.13;100838.03;1648685;86;21148;-79
2021/09/28 01:45:18;;;;;;;;;;;;;;;10.19;90.54;100837.58;1630061;86;20463;-78
2021/09/28 01:47:43;;;;;;;;;;;;;;;10.12;90.57;100833.84;1631073;86;20141;-79
2021/09/28 01:50:09;;;;;;;;;;;;;;;10.14;90.45;100825.30;1637401;86;20164;-78
2021/09/28 01:52:39;;;;;;;;;;;;;;;10.15;90.36;100823.02;1609150;87;20269;-78
2021/09/28 01:55:08;;;;;;;;;;;;;;;10.09;90.66;100833.62;1616099;87;21148;-81
2021/09/28 01:57:34;;;;;;;;;;;;;;;10.13;90.54;100826.25;1623647;85;20210;-78
2021/09/28 02:00:01;;;;;;;;;;;;;;;10.11;90.50;100833.48;1630646;86;20469;-83
2021/09/28 02:02:26;;;;;;;;;;;;;;;10.04;90.54;100827.43;1616367;86;20159;-79
2021/09/28 02:04:52;;;;;;;;;;;;;;;10.00;90.69;100826.02;1621536;87;20152;-79
2021/09/28 02:07:21;;;;;;;;;;;;;;;9.99;90.76;100829.65;1611183;88;21213;-77
2021/09/28 02:09:49;;;;;;;;;;;;;;;9.87;91.30;100830.73;1619064;87;20219;-79
2021/09/28 02:12:15;;;;;;;;;;;;;;;9.80;91.54;100825.13;1629547;86;20197;-79
2021/09/28 02:14:40;;;;;;;;;;;;;;;9.83;91.31;100820.91;1622401;86;20183;-76
2021/09/28 02:17:07;;;;;;;;;;;;;;;9.77;91.66;100823.26;1634189;86;20139;-76
2021/09/28 02:19:32;;;;;;;;;;;;;;;9.67;92.27;100825.38;1612860;87;21045;-76
2021/09/28 02:21:58;;;;;;;;;;;;;;;9.59;92.57;100821.27;1620059;86;20176;-78
2021/09/28 02:24:23;;;;;;;;;;;;;;;9.54;93.10;100822.16;1626816;86;20143;-76
2021/09/28 02:26:49;;;;;;;;;;;;;;;9.44;93.65;100818.64;1629521;86;20171;-80
2021/09/28 02:29:15;;;;;;;;;;;;;;;9.39;93.99;100816.89;1620856;86;20162;-77
2021/09/28 02:31:40;;;;;;;;;;;;;;;9.33;94.55;100815.61;1621936;86;21104;-76
2021/09/28 02:34:10;;;;;;;;;;;;;;;9.31;94.93;100810.47;1639932;86;20847;-76
2021/09/28 02:36:36;;;;;;;;;;;;;;;9.26;95.12;100810.03;1630310;86;20496;-77
2021/09/28 02:39:08;;;;;;;;;;;;;;;9.24;95.29;100817.70;1623493;85;20137;-76
2021/09/28 02:41:33;;;;;;;;;;;;;;;9.19;95.27;100815.46;1633110;86;20179;-76
2021/09/28 02:44:00;;;;;;;;;;;;;;;9.29;94.67;100815.50;1621873;87;21225;-76
2021/09/28 02:46:26;;;;;;;;;;;;;;;9.30;94.45;100814.55;1625784;86;20190;-77
2021/09/28 02:48:52;;;;;;;;;;;;;;;9.38;93.99;100816.53;1643542;86;20222;-75
2021/09/28 02:51:17;;;;;;;;;;;;;;;9.39;93.69;100820.84;1646994;86;20138;-76
2021/09/28 02:53:43;;;;;;;;;;;;;;;9.37;93.65;100822.75;1647434;86;20164;-75
2021/09/28 02:56:08;;;;;;;;;;;;;;;9.41;93.32;100817.58;1649954;86;21118;-77
2021/09/28 02:58:34;;;;;;;;;;;;;;;9.46;92.99;100818.02;1643755;86;20559;-76
2021/09/28 03:01:00;;;;;;;;;;;;;;;9.43;93.11;100820.91;1649428;86;20170;-77
2021/09/28 03:03:27;;;;;;;;;;;;;;;9.41;92.86;100818.90;1642002;86;20127;-80
2021/09/28 03:05:53;;;;;;;;;;;;;;;9.48;92.67;100814.78;1648447;86;20183;-76
2021/09/28 03:08:18;;;;;;;;;;;;;;;9.50;92.35;100815.47;1648436;86;21193;-77
2021/09/28 03:10:44;;;;;;;;;;;;;;;9.49;92.38;100819.92;1645151;86;20198;-76
2021/09/28 03:13:10;;;;;;;;;;;;;;;9.52;92.24;100822.75;1643597;86;20531;-76
2021/09/28 03:15:36;;;;;;;;;;;;;;;9.52;92.11;100816.16;1648450;86;20190;-76
2021/09/28 03:18:02;;;;;;;;;;;;;;;9.49;92.08;100821.70;1648733;85;20250;-77
2021/09/28 03:20:27;;;;;;;;;;;;;;;9.48;92.10;100816.09;1648711;85;21196;-76
2021/09/28 03:22:53;;;;;;;;;;;;;;;9.49;92.08;100814.64;1640630;86;20288;-77
2021/09/28 03:25:18;;;;;;;;;;;;;;;9.53;91.71;100817.84;1649389;86;20153;-75
2021/09/28 03:27:44;;;;;;;;;;;;;;;9.55;91.58;100815.90;1650236;86;20141;-76
2021/09/28 03:30:11;;;;;;;;;;;;;;;9.53;91.60;100815.20;1647080;85;20230;-77
2021/09/28 03:32:36;;;;;;;;;;;;;;;9.53;91.52;100812.56;1647547;85;22157;-78
2021/09/28 03:35:05;;;;;;;;;;;;;;;9.52;91.47;100816.16;1645780;86;20240;-76
2021/09/28 03:37:31;;;;;;;;;;;;;;;9.42;91.87;100819.27;1634519;86;20457;-75
2021/09/28 03:39:56;;;;;;;;;;;;;;;9.44;91.84;100819.45;1633608;86;20743;-77
2021/09/28 03:42:22;;;;;;;;;;;;;;;9.39;91.81;100813.76;1629847;86;20168;-76
2021/09/28 03:44:48;;;;;;;;;;;;;;;9.44;91.61;100816.00;1626397;86;21299;-76
2021/09/28 03:47:13;;;;;;;;;;;;;;;9.42;91.94;100816.63;1631376;86;20191;-76
2021/09/28 03:49:39;;;;;;;;;;;;;;;9.42;91.98;100816.63;1634047;87;20169;-76
2021/09/28 03:52:05;;;;;;;;;;;;;;;9.41;91.83;100818.90;1628016;86;20724;-77
2021/09/28 03:54:30;;;;;;;;;;;;;;;9.42;91.92;100821.90;1628816;86;20510;-76
2021/09/28 03:56:56;;;;;;;;;;;;;;;9.42;91.70;100814.81;1628361;85;21104;-76
2021/09/28 03:59:22;;;;;;;;;;;;;;;9.45;91.44;100815.05;1633433;86;20155;-78
2021/09/28 04:01:47;;;;;;;;;;;;;;;9.46;91.32;100817.55;1632666;86;20184;-77
2021/09/28 04:04:14;;;;;;;;;;;;;;;9.46;91.46;100819.33;1631891;86;20479;-76
2021/09/28 04:06:39;;;;;;;;;;;;;;;9.45;91.38;100819.00;1636344;86;20325;-76
2021/09/28 04:09:05;;;;;;;;;;;;;;;9.18;92.71;100820.86;1624252;86;22361;-75
2021/09/28 04:11:30;;;;;;;;;;;;;;;9.05;93.62;100821.08;1628592;86;20131;-77
2021/09/28 04:13:56;;;;;;;;;;;;;;;8.94;94.41;100822.80;1627568;87;20170;-77
2021/09/28 04:16:21;;;;;;;;;;;;;;;8.87;94.98;100824.30;1632886;86;20451;-78
2021/09/28 04:18:49;;;;;;;;;;;;;;;8.84;95.40;100819.30;1630656;86;20167;-76
2021/09/28 04:21:14;;;;;;;;;;;;;;;8.81;95.68;100832.72;1637233;86;20123;-79
2021/09/28 04:23:40;;;;;;;;;;;;;;;8.81;95.66;100826.13;1638370;86;20378;-77
2021/09/28 04:26:06;;;;;;;;;;;;;;;8.80;95.34;100827.09;1630079;85;20149;-78
2021/09/28 04:28:31;;;;;;;;;;;;;;;8.78;95.92;100830.34;1635832;86;20587;-79
2021/09/28 04:30:57;;;;;;;;;;;;;;;8.78;95.68;100829.02;1627687;86;20206;-80
2021/09/28 04:33:22;;;;;;;;;;;;;;;8.83;95.48;100832.09;1612204;88;21114;-79
2021/09/28 04:35:48;;;;;;;;;;;;;;;8.77;95.51;100835.23;1606270;88;20147;-80
2021/09/28 04:38:14;;;;;;;;;;;;;;;8.84;95.15;100835.09;1645085;86;20145;-77
2021/09/28 04:40:39;;;;;;;;;;;;;;;8.83;95.01;100831.27;1637062;85;20433;-79
2021/09/28 04:43:05;;;;;;;;;;;;;;;8.79;95.14;100835.94;1612096;87;20189;-82
2021/09/28 04:45:31;;;;;;;;;;;;;;;8.80;95.03;100833.67;1609637;87;20696;-77
2021/09/28 04:47:56;;;;;;;;;;;;;;;8.80;95.12;100834.98;1607060;87;20523;-76
2021/09/28 04:50:22;;;;;;;;;;;;;;;8.86;94.65;100835.79;1586803;88;20195;-83
2021/09/28 04:52:47;;;;;;;;;;;;;;;8.96;94.36;100841.12;1612339;87;20161;-78
2021/09/28 04:55:13;;;;;;;;;;;;;;;8.95;94.24;100846.87;1612613;87;20193;-77
2021/09/28 04:57:39;;;;;;;;;;;;;;;8.96;94.04;100853.83;1582806;90;21844;-80
2021/09/28 05:00:05;;;;;;;;;;;;;;;9.00;94.04;100857.52;1617611;88;20384;-81
2021/09/28 05:02:31;;;;;;;;;;;;;;;9.07;93.76;100859.98;1613845;87;20273;-80
2021/09/28 05:04:56;;;;;;;;;;;;;;;9.15;93.36;100862.79;1611736;88;20137;-78
2021/09/28 05:07:22;;;;;;;;;;;;;;;9.10;93.29;100866.30;1603673;87;20208;-83
2021/09/28 05:09:48;;;;;;;;;;;;;;;9.11;93.14;100870.63;1610544;87;21237;-78
2021/09/28 05:12:13;;;;;;;;;;;;;;;9.22;92.82;100868.41;1617646;88;20149;-79
2021/09/28 05:14:39;;;;;;;;;;;;;;;9.26;92.66;100872.43;1615665;87;20194;-78
2021/09/28 05:17:04;;;;;;;;;;;;;;;9.30;92.41;100868.09;1615218;88;20140;-79
2021/09/28 05:19:30;;;;;;;;;;;;;;;9.32;92.41;100872.77;1615864;87;20174;-79
2021/09/28 05:21:57;;;;;;;;;;;;;;;9.43;92.10;100873.63;1614239;87;20586;-79
2021/09/28 05:24:23;;;;;;;;;;;;;;;9.49;91.61;100874.43;1613084;87;20206;-81
2021/09/28 05:26:49;;;;;;;;;;;;;;;9.47;91.46;100881.64;1608223;87;20504;-83
2021/09/28 05:29:14;;;;;;;;;;;;;;;9.50;91.31;100876.94;1606935;88;20186;-79
2021/09/28 05:31:40;;;;;;;;;;;;;;;9.57;90.99;100877.27;1611932;87;20266;-80
2021/09/28 05:34:06;;;;;;;;;;;;;;;9.64;90.80;100883.66;1608186;87;21195;-81
2021/09/28 05:36:31;;;;;;;;;;;;;;;9.72;90.53;100890.09;1611296;87;20243;-81
2021/09/28 05:38:57;;;;;;;;;;;;;;;9.76;90.19;100891.51;1609667;87;20141;-79
2021/09/28 05:41:22;;;;;;;;;;;;;;;9.81;89.93;100897.21;1616628;88;20478;-78
2021/09/28 05:43:48;;;;;;;;;;;;;;;9.81;89.77;100902.48;1614439;87;20314;-78
2021/09/28 05:46:13;;;;;;;;;;;;;;;9.76;89.78;100904.70;1606754;87;21204;-80
2021/09/28 05:48:39;;;;;;;;;;;;;;;9.79;89.84;100909.67;1612433;85;20475;-80
2021/09/28 05:51:08;;;;;;;;;;;;;;;9.83;89.72;100908.45;1623073;85;20186;-79
2021/09/28 05:53:36;;;;;;;;;;;;;;;9.82;89.58;100918.64;1619054;86;20142;-79
2021/09/28 05:56:01;;;;;;;;;;;;;;;9.89;89.50;100919.80;1631440;86;20199;-81
2021/09/28 05:58:27;;;;;;;;;;;;;;;9.89;89.45;100922.44;1625742;85;22520;-80
2021/09/28 06:00:52;;;;;;;;;;;;;;;9.97;89.57;100923.91;1627985;86;20168;-82
2021/09/28 06:03:19;;;;;;;;;;;;;;;10.01;89.22;100937.20;1635808;86;20499;-80
2021/09/28 06:05:45;;;;;;;;;;;;;;;10.11;89.24;100938.55;1633643;86;20150;-80
2021/09/28 06:08:11;;;;;;;;;;;;;;;10.22;88.78;100943.75;1633973;85;20461;-81
2021/09/28 06:10:36;;;;;;;;;;;;;;;10.34;88.36;100949.77;1646872;86;21192;-82
2021/09/28 06:13:02;;;;;;;;;;;;;;;10.43;88.73;100948.63;1634297;86;20332;-81
2021/09/28 06:15:28;;;;;;;;;;;;;;;10.55;88.14;100951.02;1631516;86;20170;-79
2021/09/28 06:17:53;;;;;;;;;;;;;;;10.66;86.99;100955.34;1627056;86;20567;-79
2021/09/28 06:20:19;;;;;;;;;;;;;;;10.73;86.60;100952.98;1638782;86;20119;-79
2021/09/28 06:22:44;;;;;;;;;;;;;;;10.80;85.95;100951.93;1631593;86;21874;-81
2021/09/28 06:25:10;;;;;;;;;;;;;;;10.90;85.56;100951.46;1632364;86;20147;-79
2021/09/28 06:27:36;;;;;;;;;;;;;;;10.98;85.23;100957.38;1630745;86;20189;-81
2021/09/28 06:30:02;;;;;;;;;;;;;;;11.02;84.92;100959.61;1632283;85;20141;-81
2021/09/28 06:32:27;;;;;;;;;;;;;;;11.04;84.35;100960.30;1632400;86;20608;-78
2021/09/28 06:34:53;;;;;;;;;;;;;;;11.10;84.22;100962.37;1634431;86;21099;-80
2021/09/28 06:37:18;;;;;;;;;;;;;;;11.17;83.62;100968.42;1636141;85;20145;-80
2021/09/28 06:39:44;;;;;;;;;;;;;;;11.20;83.26;100969.47;1637698;86;20177;-80
2021/09/28 06:42:10;;;;;;;;;;;;;;;11.26;83.08;100975.52;1638054;86;20200;-79
2021/09/28 06:44:35;;;;;;;;;;;;;;;11.33;83.06;100977.96;1636311;86;20263;-79
2021/09/28 06:47:01;;;;;;;;;;;;;;;11.38;83.00;100978.86;1628141;86;21284;-79
2021/09/28 06:49:27;;;;;;;;;;;;;;;11.45;82.80;100980.80;1629871;86;21076;-79
2021/09/28 06:51:52;;;;;;;;;;;;;;;11.50;82.50;100987.81;1636704;85;20188;-80
2021/09/28 06:54:18;;;;;;;;;;;;;;;11.60;81.78;100986.97;1636691;86;20125;-80
2021/09/28 06:56:43;;;;;;;;;;;;;;;11.66;81.25;100987.22;1639159;86;20596;-78
2021/09/28 06:59:10;;;;;;;;;;;;;;;11.72;79.93;100983.19;1630264;86;22001;-77
2021/09/28 07:01:38;;;;;;;;;;;;;;;11.76;79.79;100989.02;1638625;86;20484;-78
2021/09/28 07:04:04;;;;;;;;;;;;;;;11.88;80.28;100987.05;1608204;89;20287;-78
2021/09/28 07:06:30;;;;;;;;;;;;;;;11.99;79.96;100986.89;1620669;86;20172;-78
2021/09/28 07:08:55;;;;;;;;;;;;;;;12.08;79.59;100989.17;1628108;86;20181;-78
2021/09/28 07:11:21;;;;;;;;;;;;;;;12.13;79.31;100989.05;1623663;86;21063;-78
2021/09/28 07:13:47;;;;;;;;;;;;;;;12.20;78.95;100990.16;1623194;86;20140;-78
2021/09/28 07:16:13;;;;;;;;;;;;;;;12.25;79.00;100994.19;1625174;86;20495;-76
2021/09/28 07:18:39;;;;;;;;;;;;;;;12.31;78.71;100990.95;1630637;86;20166;-79
2021/09/28 07:21:04;;;;;;;;;;;;;;;12.39;79.09;101000.31;1620643;87;20138;-79
2021/09/28 07:23:30;;;;;;;;;;;;;;;12.47;78.40;100999.08;1636789;86;21156;-80
2021/09/28 07:25:56;;;;;;;;;;;;;;;12.54;77.85;101009.95;1632153;86;20853;-78
2021/09/28 07:28:21;;;;;;;;;;;;;;;12.59;77.12;101005.52;1640131;85;20158;-78
2021/09/28 07:30:47;;;;;;;;;;;;;;;12.67;76.55;101009.58;1635159;86;20163;-79
2021/09/28 07:33:12;;;;;;;;;;;;;;;12.72;76.50;101008.63;1634000;86;20150;-78
2021/09/28 07:35:38;;;;;;;;;;;;;;;12.76;75.80;101011.34;1637805;86;21119;-78
2021/09/28 07:38:03;;;;;;;;;;;;;;;12.83;76.17;101009.73;1636203;86;20285;-77
2021/09/28 07:40:29;;;;;;;;;;;;;;;12.96;75.92;101014.70;1634693;86;20170;-80
2021/09/28 07:42:55;;;;;;;;;;;;;;;13.07;75.90;101013.64;1640433;86;20273;-79
2021/09/28 07:45:20;;;;;;;;;;;;;;;13.16;75.21;101014.06;1635786;85;20172;-78
2021/09/28 07:47:46;;;;;;;;;;;;;;;13.23;74.88;101015.61;1631744;86;22046;-81
2021/09/28 07:50:12;;;;;;;;;;;;;;;13.31;74.51;101009.54;1627723;87;20187;-79
2021/09/28 07:52:38;;;;;;;;;;;;;;;13.40;73.92;101011.30;1639805;86;20102;-78
2021/09/28 07:55:04;;;;;;;;;;;;;;;13.50;72.83;101012.06;1637233;86;20123;-80
2021/09/28 07:57:29;;;;;;;;;;;;;;;13.62;72.63;101012.63;1636221;86;20289;-78
2021/09/28 07:59:55;;;;;;;;;;;;;;;13.74;72.96;101013.22;1634819;86;21162;-80
2021/09/28 08:02:22;;;;;;;;;;;;;;;13.84;73.22;101008.62;1636345;87;20150;-78
2021/09/28 08:04:48;;;;;;;;;;;;;;;13.88;72.10;101012.64;1621187;87;20362;-79
2021/09/28 08:07:15;;;;;;;;;;;;;;;13.93;71.33;101009.02;1623795;87;21034;-80
2021/09/28 08:09:41;;;;;;;;;;;;;;;14.02;70.93;101008.58;1628618;87;20242;-80
2021/09/28 08:12:07;;;;;;;;;;;;;;;14.07;70.24;101013.41;1627922;86;21152;-81
2021/09/28 08:14:34;;;;;;;;;;;;;;;14.08;70.08;101011.11;1629403;86;20644;-81
2021/09/28 08:17:00;;;;;;;;;;;;;;;14.09;69.35;101014.94;1639834;87;20173;-81
2021/09/28 08:19:26;;;;;;;;;;;;;;;14.09;68.94;101019.39;1633990;86;20129;-80
2021/09/28 08:21:51;;;;;;;;;;;;;;;14.11;68.97;101022.23;1632077;87;20436;-79
2021/09/28 08:24:17;;;;;;;;;;;;;;;14.14;69.47;101017.12;1632248;87;21965;-82
2021/09/28 08:29:29;;;;;;;;;;;;;;;14.18;69.46;101023.76;1623545;85;20137;-80
2021/09/28 08:31:54;;;;;;;;;;;;;;;14.23;69.69;101017.97;1654906;85;20133;-77
2021/09/28 08:34:21;;;;;;;;;;;;;;;14.33;69.35;101022.17;1652125;85;20521;-79
2021/09/28 08:36:47;;;;;;;;;;;;;;;14.35;68.83;101022.84;1652146;85;21972;-77
2021/09/28 08:39:15;;;;;;;;;;;;;;;14.44;68.76;101030.87;1612695;87;20180;-78
2021/09/28 08:41:40;;;;;;;;;;;;;;;14.49;68.37;101028.05;1611117;87;20191;-81
2021/09/28 08:44:06;;;;;;;;;;;;;;;14.52;67.96;101032.22;1624399;86;20842;-77
2021/09/28 08:46:31;;;;;;;;;;;;;;;14.58;67.98;101030.75;1627269;86;20159;-80
2021/09/28 08:48:57;;;;;;;;;;;;;;;14.63;67.34;101027.96;1627230;86;21969;-78
2021/09/28 08:51:23;;;;;;;;;;;;;;;14.67;66.67;101033.30;1622685;87;20164;-77
2021/09/28 08:53:50;;;;;;;;;;;;;;;14.66;66.02;101035.62;1621300;87;20244;-82
2021/09/28 08:56:17;;;;;;;;;;;;;;;14.68;66.32;101034.98;1620475;87;20608;-79
2021/09/28 08:58:59;;;;;;;;;;;;;;;14.70;65.81;101035.64;1625836;86;20496;-78
2021/09/28 09:01:25;;;;;;;;;;;;;;;14.80;65.54;101037.33;1637071;86;21292;-81
2021/09/28 09:03:51;;;;;;;;;;;;;;;14.85;65.53;101038.52;1626317;86;20537;-78
2021/09/28 09:06:17;;;;;;;;;;;;;;;14.88;65.31;101034.69;1634030;86;20285;-80
2021/09/28 09:08:51;;;;;;;;;;;;;;;14.96;64.83;101035.20;1633024;86;20641;-79
2021/09/28 09:11:23;;;;;;;;;;;;;;;15.07;64.63;101033.08;1599419;87;20170;-81
2021/09/28 09:13:54;;;;;;;;;;;;;;;15.20;64.58;101035.24;1633939;86;22550;-78
2021/09/28 09:16:26;;;;;;;;;;;;;;;15.25;65.03;101033.42;1630951;86;20173;-79
2021/09/28 09:18:56;;;;;;;;;;;;;;;15.33;63.70;101033.41;1600913;87;20146;-78
2021/09/28 09:21:25;;;;;;;;;;;;;;;15.34;63.40;101033.76;1633612;86;20185;-83
2021/09/28 09:23:52;;;;;;;;;;;;;;;15.34;63.46;101039.08;1628885;86;20212;-80
2021/09/28 09:26:19;;;;;;;;;;;;;;;15.33;62.35;101029.42;1626460;86;21140;-80
2021/09/28 09:28:48;;;;;;;;;;;;;;;15.31;62.24;101032.76;1643239;86;20196;-80
2021/09/28 09:31:34;;;;;;;;;;;;;;;15.39;62.19;101035.41;1633254;87;20175;-81
2021/09/28 09:34:16;;;;;;;;;;;;;;;15.38;62.15;101037.77;1632746;86;20374;-81
2021/09/28 09:36:43;;;;;;;;;;;;;;;15.48;62.82;101028.78;1636569;86;20238;-82
2021/09/28 09:39:09;;;;;;;;;;;;;;;15.55;63.02;101024.44;1633922;86;21381;-78
2021/09/28 09:41:36;;;;;;;;;;;;;;;15.52;62.66;101032.27;1629807;86;20194;-82
2021/09/28 09:44:03;;;;;;;;;;;;;;;15.60;62.68;101032.77;1633955;87;20138;-80
2021/09/28 09:46:46;;;;;;;;;;;;;;;15.68;61.91;101035.42;1607309;86;20232;-78
2021/09/28 09:49:23;;;;;;;;;;;;;;;15.67;61.77;101032.41;1568622;88;20501;-81
2021/09/28 09:51:51;;;;;;;;;;;;;;;15.74;61.43;101029.42;1628024;87;21796;-78
2021/09/28 09:54:17;;;;;;;;;;;;;;;15.72;60.52;101036.76;1624612;86;20316;-82
2021/09/28 09:56:51;;;;;;;;;;;;;;;15.75;59.66;101037.75;1620856;87;20157;-77
2021/09/28 09:59:18;;;;;;;;;;;;;;;15.83;59.58;101034.76;1594551;87;20697;-78
2021/09/28 10:01:44;;;;;;;;;;;;;;;15.87;59.55;101030.77;1596814;88;20517;-78
2021/09/28 10:04:11;;;;;;;;;;;;;;;15.94;59.67;101035.73;1607051;88;21136;-80
2021/09/28 10:06:37;;;;;;;;;;;;;;;16.01;59.66;101039.39;1621554;87;20194;-82
2021/09/28 10:09:13;;;;;;;;;;;;;;;16.05;59.24;101044.72;1596585;88;20151;-79
2021/09/28 10:11:40;;;;;;;;;;;;;;;16.06;58.79;101039.70;1582588;88;38942;-78
2021/09/28 10:14:06;;;;;;;;;;;;;;;16.19;59.44;101031.20;1624854;87;20136;-83
2021/09/28 10:16:36;;;;;;;;;;;;;;;16.27;59.20;101039.66;1622360;87;21238;-79
2021/09/28 10:19:04;;;;;;;;;;;;;;;16.24;58.34;101032.02;1619474;87;20141;-79
2021/09/28 10:21:42;;;;;;;;;;;;;;;16.32;57.66;101037.30;1620468;87;20221;-79
2021/09/28 10:24:24;;;;;;;;;;;;;;;16.26;57.73;101037.99;1623218;87;20246;-80
2021/09/28 10:27:02;;;;;;;;;;;;;;;16.28;57.56;101033.31;1623251;87;20387;-81
2021/09/28 10:29:39;;;;;;;;;;;;;;;16.39;57.68;101032.96;1621404;87;21293;-81
2021/09/28 10:32:28;;;;;;;;;;;;;;;16.56;57.99;101034.20;1621610;87;20218;-80
2021/09/28 10:35:13;;;;;;;;;;;;;;;16.65;57.49;101033.16;1621278;88;20161;-79
2021/09/28 10:37:49;;;;;;;;;;;;;;;16.83;57.26;101031.58;1620089;87;20185;-83
2021/09/28 10:40:21;;;;;;;;;;;;;;;16.95;56.99;101029.35;1620382;88;20324;-79
2021/09/28 10:42:49;;;;;;;;;;;;;;;16.89;56.79;101034.06;1617936;88;21195;-79
2021/09/28 10:45:19;;;;;;;;;;;;;;;16.98;56.27;101037.00;1621678;88;20101;-80
2021/09/28 10:47:52;;;;;;;;;;;;;;;17.07;56.18;101031.95;1621685;88;20182;-80
2021/09/28 10:50:24;;;;;;;;;;;;;;;17.20;56.12;101030.86;1623748;87;20233;-81
2021/09/28 10:52:50;;;;;;;;;;;;;;;17.29;55.12;101028.12;1628590;86;20230;-79
2021/09/28 10:55:21;;;;;;;;;;;;;;;17.39;55.48;101029.54;1628714;85;21161;-79
2021/09/28 10:58:01;;;;;;;;;;;;;;;17.47;55.29;101029.98;1627718;87;20206;-80
2021/09/28 11:00:28;;;;;;;;;;;;;;;17.51;55.24;101031.77;1627195;86;20157;-81
2021/09/28 11:02:59;;;;;;;;;;;;;;;17.58;54.64;101028.20;1625464;86;20128;-81
2021/09/28 11:05:44;;;;;;;;;;;;;;;17.59;54.81;101027.20;1624327;86;20149;-81
2021/09/28 11:08:10;;;;;;;;;;;;;;;17.50;53.79;101018.94;1628221;87;21325;-81
2021/09/28 11:10:36;;;;;;;;;;;;;;;17.59;53.43;101017.03;1633362;86;20687;-81
2021/09/28 11:13:08;;;;;;;;;;;;;;;17.58;53.36;101024.20;1636637;86;20242;-81
2021/09/28 11:15:33;;;;;;;;;;;;;;;17.47;52.48;101033.16;1630862;86;20233;-78
2021/09/28 11:18:09;;;;;;;;;;;;;;;17.42;52.60;101033.70;1631106;86;20160;-78
2021/09/28 11:20:35;;;;;;;;;;;;;;;17.49;53.20;101029.28;1635513;86;21350;-78
2021/09/28 11:23:04;;;;;;;;;;;;;;;17.39;53.12;101023.37;1627479;86;21142;-81
2021/09/28 11:25:33;;;;;;;;;;;;;;;17.30;52.70;101030.61;1629465;86;20275;-79
2021/09/28 11:28:03;;;;;;;;;;;;;;;17.34;52.75;101027.07;1632030;86;20158;-79
2021/09/28 11:30:33;;;;;;;;;;;;;;;17.36;52.85;101029.08;1629478;86;21171;-79
2021/09/28 11:32:59;;;;;;;;;;;;;;;17.34;52.39;101023.06;1628910;86;20529;-79
2021/09/28 11:35:24;;;;;;;;;;;;;;;17.40;52.57;101022.34;1627879;86;20217;-80
2021/09/28 11:37:56;;;;;;;;;;;;;;;17.45;53.13;101023.15;1629095;86;20196;-79
2021/09/28 11:40:27;;;;;;;;;;;;;;;17.43;53.43;101032.67;1629102;86;20204;-80
2021/09/28 11:42:53;;;;;;;;;;;;;;;17.46;52.92;101029.64;1632017;87;20273;-79
2021/09/28 11:45:28;;;;;;;;;;;;;;;17.47;52.75;101025.97;1636056;86;21225;-79
2021/09/28 11:47:55;;;;;;;;;;;;;;;17.49;52.27;101022.61;1636179;86;20153;-80
2021/09/28 11:50:24;;;;;;;;;;;;;;;17.49;52.41;101029.28;1636925;87;20507;-79
2021/09/28 11:52:50;;;;;;;;;;;;;;;17.51;52.59;101017.94;1637272;85;20285;-83
2021/09/28 11:55:22;;;;;;;;;;;;;;;17.54;52.60;101017.58;1632142;86;20365;-81
2021/09/28 11:57:50;;;;;;;;;;;;;;;17.62;53.02;101023.83;1637122;86;21090;-83
2021/09/28 12:00:16;;;;;;;;;;;;;;;17.59;53.36;101018.38;1614321;87;20241;-81
2021/09/28 12:02:42;;;;;;;;;;;;;;;17.66;52.86;101019.80;1633593;86;20228;-82
2021/09/28 12:10:18;;;;;;;;;;;;;;;17.76;52.96;101019.05;1626912;87;20237;-79
2021/09/28 12:12:44;;;;;;;;;;;;;;;17.84;52.55;101021.62;1634772;86;20207;-84
2021/09/28 12:15:10;;;;;;;;;;;;;;;17.97;52.53;101021.53;1625533;87;20168;-79
2021/09/28 12:17:43;;;;;;;;;;;;;;;18.06;52.75;101019.09;1628344;86;20178;-79
2021/09/28 12:20:12;;;;;;;;;;;;;;;17.98;53.05;101021.87;1635472;85;20506;-81
2021/09/28 12:22:39;;;;;;;;;;;;;;;18.09;52.64;101024.08;1633081;86;21329;-80
2021/09/28 12:25:07;;;;;;;;;;;;;;;18.10;52.66;101027.05;1605707;87;20268;-79
2021/09/28 12:27:34;;;;;;;;;;;;;;;18.20;52.24;101026.27;1636477;86;20277;-80
2021/09/28 12:29:59;;;;;;;;;;;;;;;18.23;52.25;101021.90;1633871;86;20222;-79
2021/09/28 12:32:27;;;;;;;;;;;;;;;18.34;52.43;101021.94;1636423;86;20173;-79
2021/09/28 12:34:58;;;;;;;;;;;;;;;18.42;52.35;101023.69;1632775;87;21296;-83
2021/09/28 12:37:24;;;;;;;;;;;;;;;18.51;52.62;101021.22;1635886;86;20157;-78
2021/09/28 12:40:07;;;;;;;;;;;;;;;18.56;51.35;101019.33;1630510;85;20181;-78
2021/09/28 12:42:33;;;;;;;;;;;;;;;18.64;51.53;101018.72;1632275;86;20167;-78
2021/09/28 12:45:02;;;;;;;;;;;;;;;18.65;51.01;101020.36;1634126;86;20229;-85
2021/09/28 12:47:36;;;;;;;;;;;;;;;18.76;50.99;101020.90;1633761;86;20574;-81